createdAt,value
2023-02-16T00:00:52.402Z,0.00
2023-02-16T00:01:52.342Z,0.00
2023-02-16T00:02:52.338Z,0.00
2023-02-16T00:03:52.381Z,0.00
2023-02-16T00:04:52.303Z,0.00
2023-02-16T00:05:52.334Z,0.00
2023-02-16T00:06:52.320Z,0.00
2023-02-16T00:07:52.299Z,0.00
2023-02-16T00:08:52.260Z,0.00
2023-02-16T00:09:52.245Z,0.00
2023-02-16T00:10:52.226Z,0.00
2023-02-16T00:11:52.229Z,0.00
2023-02-16T00:12:52.197Z,0.00
2023-02-16T00:13:52.190Z,0.00
2023-02-16T00:14:52.162Z,0.00
2023-02-16T00:15:52.250Z,0.00
2023-02-16T00:16:52.169Z,0.00
2023-02-16T00:17:52.144Z,0.00
2023-02-16T00:18:52.120Z,0.00
2023-02-16T00:19:52.114Z,0.00
2023-02-16T00:20:52.092Z,0.00
2023-02-16T00:21:52.114Z,0.00
2023-02-16T00:22:52.079Z,0.00
2023-02-16T00:23:52.080Z,0.00
2023-02-16T00:24:52.034Z,0.00
2023-02-16T00:25:52.055Z,0.00
2023-02-16T00:26:52.033Z,0.00
2023-02-16T00:27:52.015Z,0.00
2023-02-16T00:28:51.986Z,0.00
2023-02-16T00:29:52.048Z,0.00
2023-02-16T00:30:52.223Z,0.00
2023-02-16T00:31:52.064Z,0.00
2023-02-16T00:32:51.939Z,0.00
2023-02-16T00:33:51.933Z,0.00
2023-02-16T00:34:51.920Z,0.00
2023-02-16T00:35:51.911Z,0.00
2023-02-16T00:36:51.912Z,0.00
2023-02-16T00:37:51.880Z,0.00
2023-02-16T00:38:51.910Z,0.00
2023-02-16T00:39:51.861Z,0.00
2023-02-16T00:40:51.870Z,0.00
2023-02-16T00:41:51.835Z,0.00
2023-02-16T00:42:51.816Z,0.00
2023-02-16T00:43:51.825Z,0.00
2023-02-16T00:44:51.787Z,0.00
2023-02-16T00:45:51.828Z,0.00
2023-02-16T00:46:51.772Z,0.00
2023-02-16T00:47:51.752Z,0.00
2023-02-16T00:48:51.742Z,0.00
2023-02-16T00:49:51.743Z,0.00
2023-02-16T00:50:51.727Z,0.00
2023-02-16T00:51:51.706Z,0.00
2023-02-16T00:52:51.684Z,0.00
2023-02-16T00:53:51.687Z,0.00
2023-02-16T00:54:51.671Z,0.00
2023-02-16T00:55:51.685Z,0.00
2023-02-16T00:56:51.654Z,0.00
2023-02-16T00:57:51.636Z,0.00
2023-02-16T00:58:51.604Z,0.00
2023-02-16T00:59:51.601Z,0.00
2023-02-16T01:00:51.595Z,0.00
2023-02-16T01:01:51.662Z,0.00
2023-02-16T01:02:51.578Z,0.00
2023-02-16T01:03:51.541Z,0.00
2023-02-16T01:04:51.722Z,0.00
2023-02-16T01:05:51.542Z,0.00
2023-02-16T01:06:51.512Z,0.00
2023-02-16T01:07:51.496Z,0.00
2023-02-16T01:08:51.481Z,0.00
2023-02-16T01:09:51.463Z,0.00
2023-02-16T01:10:51.461Z,0.00
2023-02-16T01:11:51.442Z,0.00
2023-02-16T01:12:51.422Z,0.00
2023-02-16T01:13:51.440Z,0.00
2023-02-16T01:14:51.401Z,0.00
2023-02-16T01:15:51.428Z,0.00
2023-02-16T01:16:51.375Z,0.00
2023-02-16T01:17:51.358Z,0.00
2023-02-16T01:18:51.337Z,0.00
2023-02-16T01:19:51.338Z,0.00
2023-02-16T01:20:51.350Z,0.00
2023-02-16T01:21:51.349Z,0.00
2023-02-16T01:22:51.282Z,0.00
2023-02-16T01:23:51.289Z,0.00
2023-02-16T01:24:51.278Z,0.00
2023-02-16T01:25:51.278Z,0.00
2023-02-16T01:26:51.239Z,0.00
2023-02-16T01:27:51.219Z,0.00
2023-02-16T01:28:51.231Z,0.00
2023-02-16T01:29:51.291Z,0.00
2023-02-16T01:30:51.241Z,0.00
2023-02-16T01:31:51.305Z,0.00
2023-02-16T01:32:51.150Z,0.00
2023-02-16T01:33:51.172Z,0.00
2023-02-16T01:34:51.136Z,0.00
2023-02-16T01:35:51.131Z,0.00
2023-02-16T01:36:51.110Z,0.00
2023-02-16T01:37:51.094Z,0.00
2023-02-16T01:38:51.073Z,0.00
2023-02-16T01:39:51.072Z,0.00
2023-02-16T01:40:51.071Z,0.00
2023-02-16T01:41:51.065Z,0.00
2023-02-16T01:42:51.022Z,0.00
2023-02-16T01:43:51.022Z,0.00
2023-02-16T01:44:51.029Z,0.00
2023-02-16T01:45:51.004Z,0.00
2023-02-16T01:46:51.084Z,0.00
2023-02-16T01:47:50.985Z,0.00
2023-02-16T01:48:50.983Z,0.00
2023-02-16T01:49:50.956Z,0.00
2023-02-16T01:50:50.955Z,0.00
2023-02-16T01:51:50.933Z,0.00
2023-02-16T01:52:50.926Z,0.00
2023-02-16T01:53:50.885Z,0.00
2023-02-16T01:54:50.863Z,0.00
2023-02-16T01:55:50.881Z,0.00
2023-02-16T01:56:50.836Z,0.00
2023-02-16T01:57:50.834Z,0.00
2023-02-16T01:58:50.826Z,0.00
2023-02-16T01:59:50.824Z,0.00
2023-02-16T02:00:50.806Z,0.00
2023-02-16T02:01:50.820Z,0.00
2023-02-16T02:02:50.841Z,0.00
2023-02-16T02:03:50.776Z,0.00
2023-02-16T02:04:50.755Z,0.00
2023-02-16T02:06:00.515Z,0.00
2023-02-16T02:06:52.454Z,0.00
2023-02-16T02:07:52.408Z,0.00
2023-02-16T02:08:50.677Z,0.00
2023-02-16T02:09:50.673Z,0.00
2023-02-16T02:10:50.702Z,0.00
2023-02-16T02:11:50.648Z,0.00
2023-02-16T02:12:50.677Z,0.00
2023-02-16T02:13:50.623Z,0.00
2023-02-16T02:14:50.640Z,0.00
2023-02-16T02:15:50.668Z,0.00
2023-02-16T02:16:50.594Z,0.00
2023-02-16T02:17:50.582Z,0.00
2023-02-16T02:18:50.603Z,0.00
2023-02-16T02:19:50.549Z,0.00
2023-02-16T02:20:50.562Z,0.00
2023-02-16T02:21:50.523Z,0.00
2023-02-16T02:22:50.520Z,0.00
2023-02-16T02:23:50.495Z,0.00
2023-02-16T02:24:50.477Z,0.00
2023-02-16T02:25:50.489Z,0.00
2023-02-16T02:26:50.454Z,0.00
2023-02-16T02:27:50.447Z,0.00
2023-02-16T02:28:50.414Z,0.00
2023-02-16T02:29:50.438Z,0.00
2023-02-16T02:30:50.456Z,0.00
2023-02-16T02:31:50.449Z,0.00
2023-02-16T02:32:50.383Z,0.00
2023-02-16T02:33:50.362Z,0.00
2023-02-16T02:34:50.357Z,0.00
2023-02-16T02:35:50.365Z,0.00
2023-02-16T02:36:50.342Z,0.00
2023-02-16T02:37:50.303Z,0.00
2023-02-16T02:38:50.299Z,0.00
2023-02-16T02:39:50.275Z,0.00
2023-02-16T02:40:50.275Z,0.00
2023-02-16T02:41:50.251Z,0.00
2023-02-16T02:42:50.244Z,0.00
2023-02-16T02:43:50.225Z,0.00
2023-02-16T02:44:50.233Z,0.00
2023-02-16T02:45:50.225Z,0.00
2023-02-16T02:46:50.245Z,0.00
2023-02-16T02:47:50.174Z,0.00
2023-02-16T02:48:50.155Z,0.00
2023-02-16T02:49:50.134Z,0.00
2023-02-16T02:50:50.143Z,0.00
2023-02-16T02:51:50.129Z,0.00
2023-02-16T02:52:50.116Z,0.00
2023-02-16T02:53:50.097Z,0.00
2023-02-16T02:54:50.074Z,0.00
2023-02-16T02:55:50.086Z,0.00
2023-02-16T02:56:50.055Z,0.00
2023-02-16T02:57:50.048Z,0.00
2023-02-16T02:58:50.044Z,0.00
2023-02-16T02:59:50.014Z,0.00
2023-02-16T03:00:50.071Z,0.00
2023-02-16T03:01:50.035Z,0.00
2023-02-16T03:02:49.977Z,0.00
2023-02-16T03:03:49.986Z,0.00
2023-02-16T03:04:49.946Z,0.00
2023-02-16T03:05:49.946Z,0.00
2023-02-16T03:06:49.941Z,0.00
2023-02-16T03:07:49.908Z,0.00
2023-02-16T03:08:49.896Z,0.00
2023-02-16T03:09:49.887Z,0.00
2023-02-16T03:10:49.877Z,0.00
2023-02-16T03:11:49.867Z,0.00
2023-02-16T03:12:49.868Z,0.00
2023-02-16T03:13:49.827Z,0.00
2023-02-16T03:14:49.808Z,0.00
2023-02-16T03:15:49.822Z,0.00
2023-02-16T03:16:49.779Z,0.00
2023-02-16T03:17:49.780Z,0.00
2023-02-16T03:18:49.763Z,0.00
2023-02-16T03:19:49.745Z,0.00
2023-02-16T03:20:49.745Z,0.00
2023-02-16T03:21:49.713Z,0.00
2023-02-16T03:22:49.715Z,0.00
2023-02-16T03:23:49.697Z,0.00
2023-02-16T03:24:49.688Z,0.00
2023-02-16T03:25:49.725Z,0.00
2023-02-16T03:26:49.664Z,0.00
2023-02-16T03:27:49.668Z,0.00
2023-02-16T03:28:49.627Z,0.00
2023-02-16T03:29:49.639Z,0.00
2023-02-16T03:30:49.689Z,0.00
2023-02-16T03:31:49.640Z,0.00
2023-02-16T03:32:49.579Z,0.00
2023-02-16T03:33:49.557Z,0.00
2023-02-16T03:34:49.554Z,0.00
2023-02-16T03:35:49.544Z,0.00
2023-02-16T03:36:49.552Z,0.00
2023-02-16T03:37:49.576Z,0.00
2023-02-16T03:38:49.484Z,0.00
2023-02-16T03:39:49.475Z,0.00
2023-02-16T03:40:49.472Z,0.00
2023-02-16T03:41:49.467Z,0.00
2023-02-16T03:42:49.445Z,0.00
2023-02-16T03:43:49.423Z,0.00
2023-02-16T03:44:49.468Z,0.00
2023-02-16T03:45:49.467Z,0.00
2023-02-16T03:46:49.428Z,0.00
2023-02-16T03:47:49.383Z,0.00
2023-02-16T03:48:49.367Z,0.00
2023-02-16T03:49:49.346Z,0.00
2023-02-16T03:50:49.344Z,0.00
2023-02-16T03:51:49.324Z,0.00
2023-02-16T03:52:49.308Z,0.00
2023-02-16T03:53:49.299Z,0.00
2023-02-16T03:54:49.283Z,0.00
2023-02-16T03:55:49.299Z,0.00
2023-02-16T03:56:49.345Z,0.00
2023-02-16T03:57:49.304Z,0.00
2023-02-16T03:58:49.217Z,0.00
2023-02-16T03:59:49.231Z,0.00
2023-02-16T04:00:49.216Z,0.00
2023-02-16T04:01:49.207Z,0.00
2023-02-16T04:02:49.176Z,0.00
2023-02-16T04:03:49.198Z,0.00
2023-02-16T04:04:49.151Z,0.00
2023-02-16T04:05:49.155Z,0.00
2023-02-16T04:06:49.117Z,0.00
2023-02-16T04:07:49.129Z,0.00
2023-02-16T04:08:49.122Z,0.00
2023-02-16T04:09:49.105Z,0.00
2023-02-16T04:10:49.089Z,0.00
2023-02-16T04:11:49.057Z,0.00
2023-02-16T04:12:49.046Z,0.00
2023-02-16T04:13:49.112Z,0.00
2023-02-16T04:14:49.010Z,0.00
2023-02-16T04:15:49.041Z,0.00
2023-02-16T04:16:49.081Z,0.00
2023-02-16T04:17:48.980Z,0.00
2023-02-16T04:18:48.960Z,0.00
2023-02-16T04:19:48.943Z,0.00
2023-02-16T04:20:48.982Z,0.00
2023-02-16T04:21:48.910Z,0.00
2023-02-16T04:22:48.908Z,0.00
2023-02-16T04:23:48.917Z,0.00
2023-02-16T04:24:48.892Z,0.00
2023-02-16T04:25:48.900Z,0.00
2023-02-16T04:26:48.864Z,0.00
2023-02-16T04:27:48.855Z,0.00
2023-02-16T04:28:48.830Z,0.00
2023-02-16T04:29:48.849Z,0.00
2023-02-16T04:30:48.949Z,0.00
2023-02-16T04:31:48.869Z,0.00
2023-02-16T04:32:48.799Z,0.00
2023-02-16T04:33:48.770Z,0.00
2023-02-16T04:34:48.756Z,0.00
2023-02-16T04:35:48.749Z,0.00
2023-02-16T04:36:48.737Z,0.00
2023-02-16T04:37:48.708Z,0.00
2023-02-16T04:38:48.699Z,0.00
2023-02-16T04:39:48.688Z,0.00
2023-02-16T04:40:48.792Z,0.00
2023-02-16T04:41:48.650Z,0.00
2023-02-16T04:42:48.662Z,0.00
2023-02-16T04:43:48.653Z,0.00
2023-02-16T04:44:48.617Z,0.00
2023-02-16T04:45:48.671Z,0.00
2023-02-16T04:46:48.628Z,0.00
2023-02-16T04:47:48.573Z,0.00
2023-02-16T04:48:48.597Z,0.00
2023-02-16T04:49:50.232Z,0.00
2023-02-16T04:50:48.554Z,0.00
2023-02-16T04:51:48.516Z,0.00
2023-02-16T04:52:48.528Z,0.00
2023-02-16T04:53:48.495Z,0.00
2023-02-16T04:54:48.494Z,0.00
2023-02-16T04:55:48.502Z,0.00
2023-02-16T04:56:48.464Z,0.00
2023-02-16T04:57:48.433Z,0.00
2023-02-16T04:58:48.437Z,0.00
2023-02-16T04:59:48.416Z,0.00
2023-02-16T05:00:48.429Z,0.00
2023-02-16T05:01:48.448Z,0.00
2023-02-16T05:02:48.400Z,0.00
2023-02-16T05:03:48.359Z,0.00
2023-02-16T05:04:48.414Z,0.00
2023-02-16T05:05:48.349Z,0.00
2023-02-16T05:06:48.351Z,0.00
2023-02-16T05:07:48.314Z,0.00
2023-02-16T05:08:48.305Z,0.00
2023-02-16T05:09:48.292Z,0.00
2023-02-16T05:10:48.290Z,0.00
2023-02-16T05:11:48.273Z,0.00
2023-02-16T05:12:48.279Z,0.00
2023-02-16T05:13:48.228Z,0.00
2023-02-16T05:14:48.243Z,0.00
2023-02-16T05:15:48.291Z,0.00
2023-02-16T05:16:48.187Z,0.00
2023-02-16T05:17:48.189Z,0.00
2023-02-16T05:18:48.173Z,0.00
2023-02-16T05:19:48.150Z,0.00
2023-02-16T05:20:48.146Z,0.00
2023-02-16T05:21:48.117Z,0.00
2023-02-16T05:22:48.129Z,0.00
2023-02-16T05:23:48.099Z,0.00
2023-02-16T05:24:48.077Z,0.00
2023-02-16T05:25:48.066Z,0.00
2023-02-16T05:26:48.068Z,0.00
2023-02-16T05:27:48.064Z,0.00
2023-02-16T05:28:48.035Z,0.00
2023-02-16T05:29:48.023Z,0.00
2023-02-16T05:30:48.018Z,0.00
2023-02-16T05:31:48.114Z,0.00
2023-02-16T05:32:48.117Z,0.00
2023-02-16T05:33:47.968Z,0.00
2023-02-16T05:34:47.975Z,0.00
2023-02-16T05:35:47.937Z,0.00
2023-02-16T05:36:47.946Z,0.00
2023-02-16T05:37:47.930Z,0.00
2023-02-16T05:38:47.900Z,0.00
2023-02-16T05:39:47.880Z,0.00
2023-02-16T05:40:47.872Z,0.00
2023-02-16T05:41:47.858Z,0.00
2023-02-16T05:42:47.886Z,0.00
2023-02-16T05:43:47.831Z,0.00
2023-02-16T05:44:47.827Z,0.00
2023-02-16T05:45:47.804Z,0.00
2023-02-16T05:46:47.795Z,0.00
2023-02-16T05:47:47.797Z,0.00
2023-02-16T05:48:47.772Z,0.00
2023-02-16T05:49:47.772Z,0.00
2023-02-16T05:50:47.749Z,0.00
2023-02-16T05:51:47.723Z,0.00
2023-02-16T05:52:47.745Z,0.00
2023-02-16T05:53:47.705Z,0.00
2023-02-16T05:54:47.683Z,0.00
2023-02-16T05:55:47.674Z,0.00
2023-02-16T05:56:47.666Z,0.00
2023-02-16T05:57:47.664Z,0.00
2023-02-16T05:58:47.633Z,0.00
2023-02-16T05:59:47.628Z,0.00
2023-02-16T06:00:47.618Z,0.00
2023-02-16T06:01:51.341Z,0.00
2023-02-16T06:02:47.616Z,0.00
2023-02-16T06:03:47.674Z,0.00
2023-02-16T06:04:47.554Z,0.00
2023-02-16T06:05:47.545Z,0.00
2023-02-16T06:06:47.543Z,0.00
2023-02-16T06:07:47.583Z,0.00
2023-02-16T06:08:47.524Z,0.00
2023-02-16T06:09:47.486Z,0.00
2023-02-16T06:10:47.475Z,0.00
2023-02-16T06:11:47.478Z,0.00
2023-02-16T06:12:47.459Z,0.00
2023-02-16T06:13:47.455Z,0.00
2023-02-16T06:14:47.443Z,0.00
2023-02-16T06:15:47.443Z,0.00
2023-02-16T06:16:47.425Z,0.00
2023-02-16T06:17:47.388Z,0.00
2023-02-16T06:18:47.378Z,0.00
2023-02-16T06:19:47.368Z,0.00
2023-02-16T06:20:47.343Z,0.00
2023-02-16T06:21:47.337Z,0.00
2023-02-16T06:22:47.331Z,0.00
2023-02-16T06:23:47.330Z,0.00
2023-02-16T06:24:47.298Z,0.00
2023-02-16T06:25:47.271Z,0.00
2023-02-16T06:26:47.292Z,0.00
2023-02-16T06:27:47.276Z,0.00
2023-02-16T06:28:47.258Z,0.00
2023-02-16T06:29:47.229Z,0.00
2023-02-16T06:30:47.236Z,0.00
2023-02-16T06:31:47.292Z,0.00
2023-02-16T06:32:47.191Z,0.00
2023-02-16T06:33:47.196Z,0.00
2023-02-16T06:34:47.157Z,0.00
2023-02-16T06:35:47.137Z,0.00
2023-02-16T06:36:47.154Z,0.00
2023-02-16T06:37:47.117Z,0.00
2023-02-16T06:38:47.145Z,0.00
2023-02-16T06:39:47.092Z,0.00
2023-02-16T06:40:47.076Z,0.00
2023-02-16T06:41:47.056Z,0.00
2023-02-16T06:42:47.070Z,0.00
2023-02-16T06:43:47.057Z,0.00
2023-02-16T06:44:47.035Z,0.00
2023-02-16T06:45:47.053Z,0.00
2023-02-16T06:46:47.064Z,0.00
2023-02-16T06:47:46.977Z,0.00
2023-02-16T06:48:46.996Z,0.00
2023-02-16T06:49:46.965Z,5.62
2023-02-16T06:50:46.947Z,5.62
2023-02-16T06:51:46.938Z,5.62
2023-02-16T06:52:46.920Z,5.62
2023-02-16T06:53:46.928Z,5.62
2023-02-16T06:54:46.906Z,5.62
2023-02-16T06:55:46.913Z,5.62
2023-02-16T06:56:46.918Z,5.62
2023-02-16T06:57:46.858Z,5.62
2023-02-16T06:58:46.875Z,5.62
2023-02-16T06:59:46.854Z,11.25
2023-02-16T07:00:46.907Z,11.25
2023-02-16T07:01:46.829Z,11.25
2023-02-16T07:02:46.818Z,11.25
2023-02-16T07:03:46.800Z,11.25
2023-02-16T07:04:46.764Z,11.25
2023-02-16T07:05:46.745Z,11.25
2023-02-16T07:06:46.746Z,11.25
2023-02-16T07:07:46.726Z,11.25
2023-02-16T07:08:46.726Z,11.25
2023-02-16T07:09:46.703Z,11.25
2023-02-16T07:10:50.000Z,11.25
2023-02-16T07:11:46.664Z,11.25
2023-02-16T07:12:46.666Z,11.25
2023-02-16T07:13:46.666Z,11.25
2023-02-16T07:14:46.637Z,5.62
2023-02-16T07:15:46.618Z,5.62
2023-02-16T07:16:46.603Z,5.62
2023-02-16T07:17:46.595Z,5.62
2023-02-16T07:18:46.633Z,5.62
2023-02-16T07:19:46.572Z,5.62
2023-02-16T07:20:46.568Z,5.62
2023-02-16T07:21:46.637Z,5.62
2023-02-16T07:22:46.518Z,11.25
2023-02-16T07:23:46.557Z,11.25
2023-02-16T07:24:46.499Z,11.25
2023-02-16T07:25:46.536Z,11.25
2023-02-16T07:26:46.478Z,11.25
2023-02-16T07:27:46.475Z,11.25
2023-02-16T07:28:46.485Z,11.25
2023-02-16T07:29:46.458Z,11.25
2023-02-16T07:30:46.442Z,11.25
2023-02-16T07:31:46.499Z,11.25
2023-02-16T07:32:46.419Z,11.25
2023-02-16T07:33:46.431Z,11.25
2023-02-16T07:34:46.387Z,11.25
2023-02-16T07:35:46.360Z,16.88
2023-02-16T07:36:46.348Z,16.88
2023-02-16T07:37:46.343Z,16.88
2023-02-16T07:38:46.340Z,16.88
2023-02-16T07:39:46.343Z,22.50
2023-02-16T07:40:46.284Z,22.50
2023-02-16T07:41:46.270Z,22.50
2023-02-16T07:42:46.263Z,28.12
2023-02-16T07:43:46.246Z,28.12
2023-02-16T07:44:46.243Z,33.75
2023-02-16T07:45:46.236Z,33.75
2023-02-16T07:46:46.207Z,33.75
2023-02-16T07:47:46.204Z,33.75
2023-02-16T07:48:46.192Z,33.75
2023-02-16T07:49:46.162Z,33.75
2023-02-16T07:50:46.145Z,33.75
2023-02-16T07:51:46.140Z,33.75
2023-02-16T07:52:46.126Z,33.75
2023-02-16T07:53:46.117Z,33.75
2023-02-16T07:54:46.106Z,33.75
2023-02-16T07:55:46.085Z,33.75
2023-02-16T07:56:46.088Z,33.75
2023-02-16T07:57:46.081Z,33.75
2023-02-16T07:58:46.056Z,28.12
2023-02-16T07:59:46.063Z,33.75
2023-02-16T08:00:46.014Z,33.75
2023-02-16T08:01:46.072Z,33.75
2023-02-16T08:02:46.133Z,39.38
2023-02-16T08:03:45.981Z,39.38
2023-02-16T08:04:45.983Z,39.38
2023-02-16T08:05:45.946Z,39.38
2023-02-16T08:07:55.802Z,50.62
2023-02-16T08:08:55.776Z,50.62
2023-02-16T08:09:55.774Z,56.25
2023-02-16T08:10:55.759Z,56.25
2023-02-16T08:11:55.741Z,56.25
2023-02-16T08:12:55.741Z,61.88
2023-02-16T08:13:55.719Z,61.88
2023-02-16T08:14:55.728Z,56.25
2023-02-16T08:15:55.706Z,56.25
2023-02-16T08:16:56.803Z,50.62
2023-02-16T08:17:55.681Z,50.62
2023-02-16T08:18:55.660Z,50.62
2023-02-16T08:19:55.651Z,50.62
2023-02-16T08:21:04.156Z,50.62
2023-02-16T08:21:56.627Z,56.25
2023-02-16T08:22:55.615Z,56.25
2023-02-16T08:23:55.603Z,56.25
2023-02-16T08:24:55.600Z,61.88
2023-02-16T08:25:55.572Z,61.88
2023-02-16T08:26:55.558Z,61.88
2023-02-16T08:27:55.548Z,61.88
2023-02-16T08:28:55.525Z,61.88
2023-02-16T08:29:55.588Z,61.88
2023-02-16T08:30:55.536Z,61.88
2023-02-16T08:31:55.538Z,67.50
2023-02-16T08:32:55.503Z,73.12
2023-02-16T08:33:55.455Z,78.75
2023-02-16T08:34:55.442Z,78.75
2023-02-16T08:35:55.465Z,78.75
2023-02-16T08:36:55.425Z,78.75
2023-02-16T08:37:55.401Z,84.38
2023-02-16T08:38:55.396Z,84.38
2023-02-16T08:39:55.375Z,84.38
2023-02-16T08:40:55.386Z,84.38
2023-02-16T08:41:55.348Z,84.38
2023-02-16T08:42:55.339Z,84.38
2023-02-16T08:43:55.325Z,90.00
2023-02-16T08:44:55.352Z,90.00
2023-02-16T08:45:55.326Z,90.00
2023-02-16T08:46:55.282Z,95.62
2023-02-16T08:47:55.264Z,95.62
2023-02-16T08:48:55.960Z,95.62
2023-02-16T08:49:55.253Z,95.62
2023-02-16T08:50:55.260Z,95.62
2023-02-16T08:51:55.231Z,90.00
2023-02-16T08:52:55.192Z,95.62
2023-02-16T08:53:55.189Z,95.62
2023-02-16T08:54:55.162Z,106.88
2023-02-16T08:55:55.187Z,118.12
2023-02-16T08:56:55.172Z,129.38
2023-02-16T08:57:55.170Z,118.12
2023-02-16T08:58:55.117Z,123.75
2023-02-16T08:59:55.108Z,123.75
2023-02-16T09:00:55.195Z,129.38
2023-02-16T09:01:55.092Z,129.38
2023-02-16T09:02:55.062Z,129.38
2023-02-16T09:03:55.064Z,129.38
2023-02-16T09:04:55.033Z,135.00
2023-02-16T09:05:55.048Z,135.00
2023-02-16T09:06:55.026Z,146.25
2023-02-16T09:07:55.011Z,146.25
2023-02-16T09:08:54.986Z,140.62
2023-02-16T09:09:54.971Z,135.00
2023-02-16T09:10:54.968Z,135.00
2023-02-16T09:11:54.962Z,140.62
2023-02-16T09:12:54.926Z,157.50
2023-02-16T09:13:54.945Z,157.50
2023-02-16T09:14:54.915Z,163.12
2023-02-16T09:15:54.902Z,157.50
2023-02-16T09:16:54.979Z,151.88
2023-02-16T09:17:54.868Z,151.88
2023-02-16T09:18:54.842Z,151.88
2023-02-16T09:19:54.845Z,157.50
2023-02-16T09:20:54.852Z,157.50
2023-02-16T09:21:54.801Z,163.12
2023-02-16T09:22:54.793Z,163.12
2023-02-16T09:23:54.787Z,163.12
2023-02-16T09:24:54.799Z,163.12
2023-02-16T09:25:54.772Z,163.12
2023-02-16T09:26:54.739Z,157.50
2023-02-16T09:27:54.729Z,157.50
2023-02-16T09:28:54.888Z,146.25
2023-02-16T09:29:54.758Z,135.00
2023-02-16T09:30:54.717Z,123.75
2023-02-16T09:31:54.731Z,112.50
2023-02-16T09:32:54.652Z,101.25
2023-02-16T09:33:54.683Z,95.62
2023-02-16T09:34:54.637Z,95.62
2023-02-16T09:35:54.632Z,95.62
2023-02-16T09:36:54.603Z,101.25
2023-02-16T09:37:54.595Z,106.88
2023-02-16T09:38:54.582Z,118.12
2023-02-16T09:39:54.562Z,129.38
2023-02-16T09:40:54.587Z,140.62
2023-02-16T09:41:54.544Z,146.25
2023-02-16T09:42:54.525Z,151.88
2023-02-16T09:43:54.514Z,146.25
2023-02-16T09:44:54.497Z,140.62
2023-02-16T09:45:54.520Z,129.38
2023-02-16T09:46:54.464Z,118.12
2023-02-16T09:47:54.461Z,106.88
2023-02-16T09:48:54.444Z,106.88
2023-02-16T09:49:54.454Z,95.62
2023-02-16T09:50:55.007Z,90.00
2023-02-16T09:51:54.408Z,90.00
2023-02-16T09:52:54.405Z,90.00
2023-02-16T09:53:54.386Z,90.00
2023-02-16T09:54:54.363Z,95.62
2023-02-16T09:55:54.397Z,95.62
2023-02-16T09:56:54.346Z,101.25
2023-02-16T09:57:54.324Z,101.25
2023-02-16T09:58:54.321Z,101.25
2023-02-16T09:59:54.304Z,101.25
2023-02-16T10:00:54.325Z,106.88
2023-02-16T10:01:54.282Z,106.88
2023-02-16T10:02:54.257Z,106.88
2023-02-16T10:03:54.250Z,101.25
2023-02-16T10:04:54.227Z,90.00
2023-02-16T10:05:54.222Z,84.38
2023-02-16T10:06:54.209Z,78.75
2023-02-16T10:07:54.196Z,78.75
2023-02-16T10:08:54.174Z,78.75
2023-02-16T10:09:54.164Z,73.12
2023-02-16T10:10:54.150Z,73.12
2023-02-16T10:11:54.166Z,67.50
2023-02-16T10:12:54.211Z,61.88
2023-02-16T10:13:54.191Z,61.88
2023-02-16T10:14:54.107Z,61.88
2023-02-16T10:15:54.273Z,56.25
2023-02-16T10:16:54.085Z,56.25
2023-02-16T10:17:54.083Z,50.62
2023-02-16T10:18:54.035Z,50.62
2023-02-16T10:19:54.028Z,50.62
2023-02-16T10:20:54.017Z,56.25
2023-02-16T10:21:54.038Z,56.25
2023-02-16T10:22:53.988Z,56.25
2023-02-16T10:23:54.005Z,61.88
2023-02-16T10:24:53.978Z,61.88
2023-02-16T10:25:53.964Z,61.88
2023-02-16T10:26:53.949Z,61.88
2023-02-16T10:27:53.924Z,67.50
2023-02-16T10:28:53.910Z,67.50
2023-02-16T10:29:53.933Z,67.50
2023-02-16T10:30:53.961Z,67.50
2023-02-16T10:31:53.991Z,67.50
2023-02-16T10:32:53.850Z,67.50
2023-02-16T10:33:53.847Z,67.50
2023-02-16T10:34:53.821Z,67.50
2023-02-16T10:35:53.856Z,67.50
2023-02-16T10:36:53.823Z,67.50
2023-02-16T10:37:53.791Z,67.50
2023-02-16T10:38:53.772Z,67.50
2023-02-16T10:39:53.763Z,61.88
2023-02-16T10:40:53.749Z,61.88
2023-02-16T10:41:53.755Z,67.50
2023-02-16T10:42:53.727Z,73.12
2023-02-16T10:43:53.706Z,73.12
2023-02-16T10:44:53.696Z,78.75
2023-02-16T10:45:53.690Z,78.75
2023-02-16T10:46:53.700Z,78.75
2023-02-16T10:47:53.657Z,78.75
2023-02-16T10:48:53.638Z,78.75
2023-02-16T10:49:53.627Z,84.38
2023-02-16T10:50:53.614Z,84.38
2023-02-16T10:51:53.625Z,84.38
2023-02-16T10:52:53.577Z,84.38
2023-02-16T10:53:53.585Z,90.00
2023-02-16T10:54:53.571Z,95.62
2023-02-16T10:55:53.559Z,101.25
2023-02-16T10:56:53.558Z,106.88
2023-02-16T10:57:53.532Z,112.50
2023-02-16T10:58:53.507Z,123.75
2023-02-16T10:59:53.500Z,135.00
2023-02-16T11:00:53.481Z,146.25
2023-02-16T11:01:53.530Z,157.50
2023-02-16T11:02:53.540Z,168.75
2023-02-16T11:03:53.516Z,168.75
2023-02-16T11:04:53.448Z,174.38
2023-02-16T11:05:53.427Z,168.75
2023-02-16T11:06:53.410Z,168.75
2023-02-16T11:07:53.401Z,163.12
2023-02-16T11:08:53.383Z,163.12
2023-02-16T11:09:53.362Z,163.12
2023-02-16T11:10:53.400Z,163.12
2023-02-16T11:11:53.371Z,157.50
2023-02-16T11:12:53.325Z,151.88
2023-02-16T11:13:53.302Z,146.25
2023-02-16T11:14:53.291Z,135.00
2023-02-16T11:15:53.302Z,129.38
2023-02-16T11:16:53.292Z,123.75
2023-02-16T11:17:53.277Z,118.12
2023-02-16T11:18:53.263Z,112.50
2023-02-16T11:19:53.227Z,106.88
2023-02-16T11:20:53.232Z,101.25
2023-02-16T11:21:53.214Z,95.62
2023-02-16T11:22:53.207Z,95.62
2023-02-16T11:23:53.174Z,90.00
2023-02-16T11:24:53.161Z,95.62
2023-02-16T11:25:53.145Z,106.88
2023-02-16T11:26:53.135Z,140.62
2023-02-16T11:27:53.144Z,157.50
2023-02-16T11:28:53.114Z,163.12
2023-02-16T11:29:53.108Z,168.75
2023-02-16T11:30:53.109Z,157.50
2023-02-16T11:31:53.175Z,135.00
2023-02-16T11:32:53.066Z,118.12
2023-02-16T11:33:53.034Z,106.88
2023-02-16T11:34:53.019Z,101.25
2023-02-16T11:35:53.020Z,95.62
2023-02-16T11:36:53.008Z,90.00
2023-02-16T11:37:53.042Z,90.00
2023-02-16T11:38:52.960Z,84.38
2023-02-16T11:39:52.957Z,84.38
2023-02-16T11:40:52.945Z,84.38
2023-02-16T11:41:52.931Z,84.38
2023-02-16T11:42:52.937Z,84.38
2023-02-16T11:43:52.893Z,84.38
2023-02-16T11:44:52.885Z,84.38
2023-02-16T11:45:52.871Z,84.38
2023-02-16T11:46:52.894Z,90.00
2023-02-16T11:47:52.859Z,90.00
2023-02-16T11:48:52.820Z,95.62
2023-02-16T11:49:52.819Z,90.00
2023-02-16T11:50:54.571Z,84.38
2023-02-16T11:51:52.785Z,84.38
2023-02-16T11:52:52.795Z,90.00
2023-02-16T11:53:52.779Z,90.00
2023-02-16T11:54:52.748Z,90.00
2023-02-16T11:55:52.732Z,84.38
2023-02-16T11:56:52.728Z,90.00
2023-02-16T11:57:52.744Z,95.62
2023-02-16T11:58:52.703Z,118.12
2023-02-16T11:59:52.679Z,129.38
2023-02-16T12:00:52.660Z,118.12
2023-02-16T12:01:52.651Z,118.12
2023-02-16T12:02:52.650Z,123.75
2023-02-16T12:03:52.668Z,123.75
2023-02-16T12:04:52.657Z,123.75
2023-02-16T12:05:52.592Z,118.12
2023-02-16T12:06:52.571Z,112.50
2023-02-16T12:07:52.589Z,112.50
2023-02-16T12:08:52.560Z,118.12
2023-02-16T12:09:52.542Z,118.12
2023-02-16T12:10:52.522Z,123.75
2023-02-16T12:11:52.521Z,129.38
2023-02-16T12:12:52.509Z,146.25
2023-02-16T12:13:52.496Z,168.75
2023-02-16T12:14:52.474Z,174.38
2023-02-16T12:15:52.490Z,174.38
2023-02-16T12:16:52.444Z,163.12
2023-02-16T12:17:52.452Z,135.00
2023-02-16T12:18:52.424Z,118.12
2023-02-16T12:19:52.411Z,106.88
2023-02-16T12:20:52.385Z,118.12
2023-02-16T12:21:52.380Z,146.25
2023-02-16T12:22:52.400Z,157.50
2023-02-16T12:23:52.352Z,146.25
2023-02-16T12:24:52.332Z,146.25
2023-02-16T12:25:52.322Z,180.00
2023-02-16T12:26:52.303Z,196.88
2023-02-16T12:27:52.305Z,168.75
2023-02-16T12:28:52.291Z,151.88
2023-02-16T12:29:52.383Z,129.38
2023-02-16T12:30:52.274Z,118.12
2023-02-16T12:31:52.278Z,118.12
2023-02-16T12:32:52.229Z,123.75
2023-02-16T12:33:52.231Z,112.50
2023-02-16T12:34:52.208Z,106.88
2023-02-16T12:35:52.190Z,106.88
2023-02-16T12:36:52.175Z,106.88
2023-02-16T12:37:52.166Z,112.50
2023-02-16T12:38:52.181Z,106.88
2023-02-16T12:39:52.132Z,106.88
2023-02-16T12:40:52.111Z,123.75
2023-02-16T12:41:52.142Z,112.50
2023-02-16T12:42:52.088Z,95.62
2023-02-16T12:43:52.111Z,101.25
2023-02-16T12:44:52.061Z,101.25
2023-02-16T12:45:52.142Z,101.25
2023-02-16T12:46:52.037Z,112.50
2023-02-16T12:47:52.048Z,140.62
2023-02-16T12:48:52.026Z,163.12
2023-02-16T12:49:52.004Z,168.75
2023-02-16T12:50:51.973Z,157.50
2023-02-16T12:51:51.969Z,140.62
2023-02-16T12:52:51.957Z,151.88
2023-02-16T12:53:51.968Z,168.75
2023-02-16T12:54:51.930Z,174.38
2023-02-16T12:55:51.918Z,168.75
2023-02-16T12:56:51.894Z,146.25
2023-02-16T12:57:51.903Z,123.75
2023-02-16T12:58:51.881Z,112.50
2023-02-16T12:59:51.861Z,106.88
2023-02-16T13:00:51.874Z,101.25
2023-02-16T13:01:51.831Z,101.25
2023-02-16T13:02:51.821Z,101.25